Time;durP1;ratioP1;P1;durP2;ratioP2;P2;SDS_P1;SDS_P2;PMS_P1;PMS_P2;Temp;Humidity;BMP_temperature;BMP_pressure;BME280_temperature;BME280_humidity;BME280_pressure;Samples;Min_cycle;Max_cycle;Signal;HPM_P1;HPM_P2
2022/01/08 00:01:31;;;;;;;23.20;10.20;;;;;;;;;;5031248;28;20068;-64
2022/01/08 00:03:57;;;;;;;16.95;10.02;;;;;;;;;;5025186;28;20048;-64
2022/01/08 00:06:23;;;;;;;16.40;9.68;;;;;;;;;;5004275;28;20287;-65
2022/01/08 00:08:50;;;;;;;15.20;9.40;;;;;;;;;;5020303;28;20049;-65
2022/01/08 00:11:20;;;;;;;16.10;9.15;;;;;;;;;;5011798;28;20046;-64
2022/01/08 00:13:47;;;;;;;16.67;9.63;;;;;;;;;;5025960;28;20041;-65
2022/01/08 00:16:13;;;;;;;14.82;9.07;;;;;;;;;;5013532;28;20159;-66
2022/01/08 00:18:39;;;;;;;14.60;9.35;;;;;;;;;;5011109;28;20045;-65
2022/01/08 00:21:06;;;;;;;13.40;8.82;;;;;;;;;;5014890;28;20045;-65
2022/01/08 00:23:32;;;;;;;17.77;8.27;;;;;;;;;;5017273;28;20294;-64
2022/01/08 00:25:58;;;;;;;14.90;9.80;;;;;;;;;;5015227;28;20411;-64
2022/01/08 00:28:25;;;;;;;15.25;8.48;;;;;;;;;;5011540;28;20087;-65
2022/01/08 00:30:52;;;;;;;16.08;8.88;;;;;;;;;;5021418;28;20045;-65
2022/01/08 00:33:19;;;;;;;18.52;9.45;;;;;;;;;;5017888;28;20357;-65
2022/01/08 00:35:45;;;;;;;14.65;9.60;;;;;;;;;;5006475;28;20053;-65
2022/01/08 00:38:11;;;;;;;12.93;8.80;;;;;;;;;;5021162;28;20053;-64
2022/01/08 00:40:38;;;;;;;15.02;9.32;;;;;;;;;;5009112;28;21082;-65
2022/01/08 00:43:04;;;;;;;16.45;9.57;;;;;;;;;;5020642;28;20055;-65
2022/01/08 00:45:30;;;;;;;13.25;9.30;;;;;;;;;;5012934;28;20056;-65
2022/01/08 00:47:57;;;;;;;13.52;9.30;;;;;;;;;;5013895;28;20512;-64
2022/01/08 00:50:23;;;;;;;14.95;9.63;;;;;;;;;;5018185;28;20049;-65
2022/01/08 00:52:49;;;;;;;20.38;10.07;;;;;;;;;;5009415;28;20049;-65
2022/01/08 00:55:16;;;;;;;13.48;9.25;;;;;;;;;;5030557;28;20757;-64
2022/01/08 00:57:42;;;;;;;14.73;10.30;;;;;;;;;;5009921;28;20045;-65
2022/01/08 01:00:10;;;;;;;18.55;10.30;;;;;;;;;;5021808;28;20068;-65
2022/01/08 01:02:37;;;;;;;14.07;9.68;;;;;;;;;;5004537;28;20072;-65
2022/01/08 01:05:05;;;;;;;14.68;9.65;;;;;;;;;;5019553;28;20049;-65
2022/01/08 01:07:31;;;;;;;20.17;11.00;;;;;;;;;;5017658;28;20045;-64
2022/01/08 01:09:57;;;;;;;15.98;9.85;;;;;;;;;;5018696;28;20045;-64
2022/01/08 01:12:24;;;;;;;16.83;9.75;;;;;;;;;;5016628;28;20045;-64
2022/01/08 01:15:07;;;;;;;21.83;10.18;;;;;;;;;;5010636;28;20515;-63
2022/01/08 01:17:33;;;;;;;18.75;11.35;;;;;;;;;;5013760;28;20052;-64
2022/01/08 01:20:00;;;;;;;19.50;11.48;;;;;;;;;;5021392;28;20485;-64
2022/01/08 01:22:31;;;;;;;21.55;10.60;;;;;;;;;;5020532;28;20052;-63
2022/01/08 01:25:04;;;;;;;19.55;10.43;;;;;;;;;;5026008;28;20053;-62
2022/01/08 01:30:17;;;;;;;17.33;11.13;;;;;;;;;;5026141;28;20072;-62
2022/01/08 01:48:53;;;;;;;18.23;11.65;;;;;;;;;;5012907;28;20053;-65
2022/01/08 01:51:22;;;;;;;18.02;11.20;;;;;;;;;;5025132;28;20343;-65
2022/01/08 01:53:50;;;;;;;18.38;11.88;;;;;;;;;;5023444;28;20052;-64
2022/01/08 01:56:17;;;;;;;17.60;10.75;;;;;;;;;;5013276;28;20716;-65
2022/01/08 01:58:43;;;;;;;16.40;11.30;;;;;;;;;;5019687;28;20391;-65
2022/01/08 02:01:10;;;;;;;22.35;11.57;;;;;;;;;;5016795;28;20060;-63
2022/01/08 02:03:36;;;;;;;22.58;12.27;;;;;;;;;;5020423;28;20076;-63
2022/01/08 02:06:02;;;;;;;19.38;12.40;;;;;;;;;;5016136;28;20794;-62
2022/01/08 02:08:29;;;;;;;16.75;10.40;;;;;;;;;;5013483;28;20368;-62
2022/01/08 02:10:56;;;;;;;20.33;11.50;;;;;;;;;;5020944;28;20061;-61
2022/01/08 02:13:26;;;;;;;20.80;11.70;;;;;;;;;;5012529;28;20057;-62
2022/01/08 02:15:54;;;;;;;16.15;10.98;;;;;;;;;;5024103;28;20052;-61
2022/01/08 02:18:21;;;;;;;20.77;12.45;;;;;;;;;;5011659;28;20612;-62
2022/01/08 02:20:48;;;;;;;23.17;11.02;;;;;;;;;;5026020;28;20501;-63
2022/01/08 02:23:14;;;;;;;25.80;11.43;;;;;;;;;;5006963;28;20053;-62
2022/01/08 02:25:41;;;;;;;16.13;10.88;;;;;;;;;;5019288;28;20052;-62
2022/01/08 02:28:07;;;;;;;18.73;10.77;;;;;;;;;;5020828;28;20060;-61
2022/01/08 02:30:33;;;;;;;15.13;10.60;;;;;;;;;;5015815;28;20080;-61
2022/01/08 02:33:00;;;;;;;18.70;10.27;;;;;;;;;;5021901;28;20045;-62
2022/01/08 02:35:26;;;;;;;20.48;10.85;;;;;;;;;;5017962;28;20537;-61
2022/01/08 02:37:53;;;;;;;15.98;9.63;;;;;;;;;;5018590;28;20041;-62
2022/01/08 02:40:20;;;;;;;17.88;10.63;;;;;;;;;;5018256;28;20053;-64
2022/01/08 02:43:00;;;;;;;18.45;10.32;;;;;;;;;;5019992;28;20084;-62
2022/01/08 02:45:27;;;;;;;19.77;10.70;;;;;;;;;;5023071;28;20064;-63
2022/01/08 02:47:54;;;;;;;17.13;10.52;;;;;;;;;;5014000;28;20392;-61
2022/01/08 02:50:21;;;;;;;18.65;10.18;;;;;;;;;;5014424;28;20402;-62
2022/01/08 02:52:48;;;;;;;18.15;9.85;;;;;;;;;;5014352;28;20376;-62
2022/01/08 02:55:15;;;;;;;17.38;9.90;;;;;;;;;;5022233;28;20054;-62
2022/01/08 02:57:42;;;;;;;18.85;10.55;;;;;;;;;;5015909;28;20546;-62
2022/01/08 03:00:09;;;;;;;16.92;10.45;;;;;;;;;;5021556;28;20052;-62
2022/01/08 03:02:42;;;;;;;21.52;11.10;;;;;;;;;;5022206;28;20819;-62
2022/01/08 03:05:11;;;;;;;16.45;10.70;;;;;;;;;;5014813;28;20056;-62
2022/01/08 03:07:38;;;;;;;18.73;11.60;;;;;;;;;;5025503;28;20714;-62
2022/01/08 03:10:05;;;;;;;17.90;10.93;;;;;;;;;;5017121;28;20460;-62
2022/01/08 03:12:32;;;;;;;23.35;11.00;;;;;;;;;;5017247;28;20045;-63
2022/01/08 03:14:58;;;;;;;21.45;11.80;;;;;;;;;;5010212;28;20076;-63
2022/01/08 03:17:25;;;;;;;21.13;10.80;;;;;;;;;;5021123;28;20060;-62
2022/01/08 03:19:53;;;;;;;22.27;11.15;;;;;;;;;;5017986;28;20068;-62
2022/01/08 03:22:19;;;;;;;15.77;11.13;;;;;;;;;;5016676;28;20049;-62
2022/01/08 03:24:45;;;;;;;15.25;10.73;;;;;;;;;;5033255;28;20082;-62
2022/01/08 03:27:13;;;;;;;21.75;12.00;;;;;;;;;;5012885;28;20562;-62
2022/01/08 03:29:40;;;;;;;18.65;11.13;;;;;;;;;;5006196;28;20418;-62
2022/01/08 03:32:06;;;;;;;20.42;10.90;;;;;;;;;;5016488;28;20045;-62
2022/01/08 03:34:32;;;;;;;18.38;11.35;;;;;;;;;;5018415;28;20744;-63
2022/01/08 03:36:59;;;;;;;23.15;11.85;;;;;;;;;;5025560;28;20064;-63
2022/01/08 03:39:25;;;;;;;20.00;10.93;;;;;;;;;;5010739;28;20049;-63
2022/01/08 03:41:52;;;;;;;19.73;11.15;;;;;;;;;;5021310;28;20356;-63
2022/01/08 03:44:19;;;;;;;17.67;9.68;;;;;;;;;;5011882;28;20834;-63
2022/01/08 03:46:45;;;;;;;18.58;10.40;;;;;;;;;;5007374;28;20045;-63
2022/01/08 03:49:24;;;;;;;16.25;10.40;;;;;;;;;;5015806;28;20505;-63
2022/01/08 03:51:50;;;;;;;;;;;;;;;;;;5019076;28;20061;-62
2022/01/08 03:54:16;;;;;;;16.80;10.05;;;;;;;;;;5016752;28;20587;-62
2022/01/08 03:56:43;;;;;;;20.35;10.27;;;;;;;;;;5013907;28;20049;-63
2022/01/08 03:59:09;;;;;;;17.42;10.27;;;;;;;;;;5022308;28;20701;-63
2022/01/08 04:01:36;;;;;;;16.60;9.80;;;;;;;;;;5014102;28;20052;-63
2022/01/08 04:04:02;;;;;;;12.75;9.30;;;;;;;;;;5019089;28;20753;-63
2022/01/08 04:06:28;;;;;;;19.77;9.55;;;;;;;;;;5006593;28;20045;-61
2022/01/08 04:08:58;;;;;;;14.38;8.60;;;;;;;;;;5019973;28;20042;-63
2022/01/08 04:11:25;;;;;;;14.68;9.88;;;;;;;;;;5018765;28;20401;-62
2022/01/08 04:13:52;;;;;;;19.65;9.93;;;;;;;;;;5012204;28;20041;-63
2022/01/08 04:16:24;;;;;;;18.08;9.13;;;;;;;;;;5017818;28;20051;-61
2022/01/08 04:18:50;;;;;;;14.15;9.25;;;;;;;;;;5009139;28;20057;-62
2022/01/08 04:23:48;;;;;;;16.48;9.05;;;;;;;;;;5018034;28;20045;-62
2022/01/08 04:26:15;;;;;;;18.08;9.07;;;;;;;;;;5023586;28;20060;-63
2022/01/08 04:28:41;;;;;;;17.70;8.90;;;;;;;;;;5021300;28;20461;-63
2022/01/08 04:31:07;;;;;;;16.10;8.93;;;;;;;;;;5009561;28;20056;-61
2022/01/08 04:33:33;;;;;;;16.35;8.65;;;;;;;;;;5024112;28;20045;-62
2022/01/08 04:36:00;;;;;;;15.10;8.90;;;;;;;;;;5005050;28;20364;-63
2022/01/08 04:38:26;;;;;;;15.13;8.52;;;;;;;;;;5027937;28;20051;-61
2022/01/08 04:40:53;;;;;;;12.77;8.60;;;;;;;;;;5015220;28;20072;-62
2022/01/08 04:43:20;;;;;;;15.23;8.60;;;;;;;;;;5027676;28;20464;-62
2022/01/08 04:45:49;;;;;;;14.75;8.75;;;;;;;;;;5020020;28;20550;-62
2022/01/08 04:48:16;;;;;;;17.52;8.88;;;;;;;;;;5006486;28;20053;-62
2022/01/08 04:50:48;;;;;;;14.68;8.50;;;;;;;;;;5025173;28;20683;-60
2022/01/08 04:53:14;;;;;;;20.73;8.68;;;;;;;;;;5020010;28;20403;-62
2022/01/08 04:55:40;;;;;;;15.15;9.13;;;;;;;;;;5025983;28;20049;-62
2022/01/08 04:58:07;;;;;;;13.10;7.68;;;;;;;;;;5017589;28;20053;-61
2022/01/08 05:00:33;;;;;;;16.92;8.40;;;;;;;;;;5019007;28;20053;-62
2022/01/08 05:02:59;;;;;;;13.98;8.15;;;;;;;;;;5021502;28;20491;-63
2022/01/08 05:05:26;;;;;;;15.88;8.50;;;;;;;;;;5016939;28;20085;-62
2022/01/08 05:07:52;;;;;;;19.83;8.57;;;;;;;;;;5024927;28;20048;-62
2022/01/08 05:10:19;;;;;;;15.85;8.50;;;;;;;;;;5021567;28;20053;-62
2022/01/08 05:12:45;;;;;;;19.80;8.93;;;;;;;;;;5027669;28;20111;-62
2022/01/08 05:15:11;;;;;;;20.58;8.50;;;;;;;;;;5016343;28;20053;-63
2022/01/08 05:17:39;;;;;;;15.73;8.88;;;;;;;;;;5021391;28;20053;-62
2022/01/08 05:20:07;;;;;;;19.60;8.30;;;;;;;;;;5028509;28;20050;-62
2022/01/08 05:22:51;;;;;;;19.27;8.27;;;;;;;;;;5015652;28;20045;-62
2022/01/08 05:25:20;;;;;;;17.92;8.30;;;;;;;;;;5025982;28;20057;-62
2022/01/08 05:27:47;;;;;;;13.25;7.13;;;;;;;;;;5015909;28;20474;-62
2022/01/08 05:30:15;;;;;;;20.73;8.50;;;;;;;;;;5024928;28;20053;-62
2022/01/08 05:32:41;;;;;;;16.47;8.17;;;;;;;;;;5011419;28;20468;-62
2022/01/08 05:35:08;;;;;;;17.05;8.27;;;;;;;;;;5030565;28;20711;-63
2022/01/08 05:37:34;;;;;;;22.17;8.68;;;;;;;;;;5023825;28;20050;-63
2022/01/08 05:40:01;;;;;;;16.40;8.02;;;;;;;;;;5024930;28;20055;-63
2022/01/08 05:42:27;;;;;;;15.77;8.35;;;;;;;;;;5017113;28;20483;-63
2022/01/08 05:44:53;;;;;;;17.95;8.23;;;;;;;;;;5013250;28;20240;-63
2022/01/08 05:47:23;;;;;;;21.80;8.40;;;;;;;;;;5027492;28;20053;-63
2022/01/08 05:49:49;;;;;;;20.00;8.68;;;;;;;;;;5017301;28;20611;-63
2022/01/08 05:52:16;;;;;;;19.52;8.82;;;;;;;;;;5023313;28;20397;-63
2022/01/08 05:54:43;;;;;;;17.67;8.27;;;;;;;;;;5028107;28;20081;-63
2022/01/08 05:57:10;;;;;;;16.75;8.00;;;;;;;;;;5017603;28;20137;-63
2022/01/08 05:59:36;;;;;;;19.85;8.48;;;;;;;;;;5021400;28;20053;-63
2022/01/08 06:02:03;;;;;;;16.98;7.95;;;;;;;;;;5013644;28;20419;-63
2022/01/08 06:04:29;;;;;;;15.65;7.95;;;;;;;;;;5025885;28;20113;-63
2022/01/08 06:06:55;;;;;;;15.05;8.55;;;;;;;;;;5013384;28;20068;-63
2022/01/08 06:09:21;;;;;;;18.40;9.23;;;;;;;;;;5023762;28;20057;-61
2022/01/08 06:11:48;;;;;;;22.02;9.40;;;;;;;;;;5017406;28;20060;-63
2022/01/08 06:14:14;;;;;;;15.10;8.65;;;;;;;;;;5010025;28;20079;-63
2022/01/08 06:16:40;;;;;;;21.35;8.77;;;;;;;;;;5020407;28;20041;-62
2022/01/08 06:19:08;;;;;;;20.17;9.10;;;;;;;;;;5013971;28;20069;-63
2022/01/08 06:21:35;;;;;;;24.98;9.93;;;;;;;;;;5023013;28;20483;-63
2022/01/08 06:24:01;;;;;;;21.88;9.27;;;;;;;;;;5018294;28;20049;-62
2022/01/08 06:26:27;;;;;;;17.35;9.50;;;;;;;;;;5013789;28;20442;-62
2022/01/08 06:28:53;;;;;;;25.88;10.18;;;;;;;;;;5018297;28;20068;-62
2022/01/08 06:31:22;;;;;;;20.63;8.63;;;;;;;;;;5019254;28;20473;-62
2022/01/08 06:33:49;;;;;;;16.15;10.65;;;;;;;;;;5017744;28;20038;-62
2022/01/08 06:36:19;;;;;;;18.88;9.68;;;;;;;;;;5011917;28;20050;-62
2022/01/08 06:38:46;;;;;;;20.30;10.50;;;;;;;;;;5014536;28;20104;-60
2022/01/08 06:41:13;;;;;;;17.23;9.55;;;;;;;;;;5010127;28;20045;-61
2022/01/08 06:43:40;;;;;;;20.77;9.98;;;;;;;;;;5018327;28;20064;-62
2022/01/08 06:46:06;;;;;;;20.73;10.82;;;;;;;;;;5024847;28;20115;-62
2022/01/08 06:48:32;;;;;;;16.42;9.48;;;;;;;;;;5011574;28;20064;-62
2022/01/08 06:50:59;;;;;;;15.82;9.02;;;;;;;;;;5026488;28;21102;-62
2022/01/08 06:53:25;;;;;;;15.68;9.02;;;;;;;;;;5014551;28;20054;-62
2022/01/08 06:55:52;;;;;;;20.13;9.48;;;;;;;;;;5017547;28;20045;-62
2022/01/08 06:58:20;;;;;;;21.73;9.63;;;;;;;;;;5017100;28;21718;-62
2022/01/08 07:00:47;;;;;;;18.35;9.45;;;;;;;;;;5022578;28;20049;-61
2022/01/08 07:03:13;;;;;;;16.33;9.55;;;;;;;;;;5019901;28;20058;-62
2022/01/08 07:05:40;;;;;;;21.15;10.13;;;;;;;;;;5016241;28;20099;-62
2022/01/08 07:08:06;;;;;;;19.73;9.32;;;;;;;;;;5014761;28;20053;-60
2022/01/08 07:10:33;;;;;;;19.77;9.10;;;;;;;;;;5007279;28;20048;-61
2022/01/08 07:13:00;;;;;;;19.48;9.90;;;;;;;;;;5021516;28;20046;-61
2022/01/08 07:15:26;;;;;;;32.58;9.43;;;;;;;;;;5017475;28;20045;-63
2022/01/08 07:17:52;;;;;;;18.58;9.73;;;;;;;;;;5018517;28;20379;-61
2022/01/08 07:20:19;;;;;;;17.92;10.40;;;;;;;;;;5023298;28;20163;-63
2022/01/08 07:22:45;;;;;;;21.58;10.70;;;;;;;;;;5010527;28;20047;-62
2022/01/08 07:25:12;;;;;;;19.42;9.70;;;;;;;;;;5017340;28;20720;-62
2022/01/08 07:27:38;;;;;;;17.33;9.25;;;;;;;;;;5012720;28;20084;-62
2022/01/08 07:30:05;;;;;;;20.98;11.38;;;;;;;;;;5020652;28;20053;-62
2022/01/08 07:32:32;;;;;;;18.30;9.77;;;;;;;;;;5014068;28;20049;-62
2022/01/08 07:34:58;;;;;;;20.90;10.18;;;;;;;;;;5015654;28;20384;-61
2022/01/08 07:37:24;;;;;;;19.92;10.48;;;;;;;;;;5016329;28;20498;-62
2022/01/08 07:39:51;;;;;;;20.48;10.20;;;;;;;;;;5017899;28;20049;-61
2022/01/08 07:42:17;;;;;;;24.35;10.52;;;;;;;;;;5025163;28;20049;-60
2022/01/08 07:44:43;;;;;;;18.95;9.98;;;;;;;;;;5010466;28;20049;-60
2022/01/08 07:47:10;;;;;;;20.08;10.18;;;;;;;;;;5022747;28;20049;-59
2022/01/08 07:49:36;;;;;;;18.58;10.02;;;;;;;;;;5009367;28;20045;-62
2022/01/08 07:52:02;;;;;;;22.55;10.43;;;;;;;;;;5018394;28;20063;-62
2022/01/08 07:54:29;;;;;;;18.70;10.48;;;;;;;;;;5020312;28;20052;-62
2022/01/08 07:56:55;;;;;;;17.40;10.20;;;;;;;;;;4997886;28;20420;-61
2022/01/08 07:59:21;;;;;;;18.13;10.13;;;;;;;;;;5021288;28;20425;-61
2022/01/08 08:01:47;;;;;;;18.20;10.88;;;;;;;;;;5011352;28;20044;-61
2022/01/08 08:04:14;;;;;;;17.92;9.93;;;;;;;;;;5025618;28;20103;-61
2022/01/08 08:06:44;;;;;;;18.65;10.57;;;;;;;;;;5016928;28;20135;-62
2022/01/08 08:09:10;;;;;;;20.70;10.43;;;;;;;;;;5022762;28;20053;-62
2022/01/08 08:11:36;;;;;;;16.70;10.75;;;;;;;;;;5019299;28;20060;-62
2022/01/08 08:14:03;;;;;;;20.33;10.18;;;;;;;;;;5014598;28;20056;-61
2022/01/08 08:16:29;;;;;;;17.25;10.35;;;;;;;;;;5012479;28;20058;-62
2022/01/08 08:18:55;;;;;;;19.25;10.75;;;;;;;;;;5019013;28;20041;-62
2022/01/08 08:21:21;;;;;;;17.80;10.40;;;;;;;;;;5019372;28;20054;-61
2022/01/08 08:23:48;;;;;;;22.20;11.00;;;;;;;;;;5022993;28;20049;-62
2022/01/08 08:26:14;;;;;;;21.23;11.88;;;;;;;;;;5011680;28;20113;-61
2022/01/08 08:28:44;;;;;;;21.50;11.63;;;;;;;;;;5016308;28;20267;-60
2022/01/08 08:31:11;;;;;;;17.23;10.63;;;;;;;;;;5005715;28;20667;-60
2022/01/08 08:33:38;;;;;;;19.25;10.10;;;;;;;;;;5024200;28;20422;-61
2022/01/08 08:36:05;;;;;;;23.10;11.07;;;;;;;;;;5010402;28;20054;-61
2022/01/08 08:38:32;;;;;;;23.30;11.38;;;;;;;;;;5022084;28;20482;-62
2022/01/08 08:40:58;;;;;;;25.77;11.55;;;;;;;;;;5014428;28;20057;-61
2022/01/08 08:43:25;;;;;;;23.95;11.05;;;;;;;;;;5008164;28;20052;-62
2022/01/08 08:45:51;;;;;;;19.20;11.40;;;;;;;;;;5019241;28;20049;-63
2022/01/08 08:48:17;;;;;;;19.08;11.70;;;;;;;;;;5017860;28;20057;-62
2022/01/08 08:50:44;;;;;;;22.40;11.65;;;;;;;;;;5019094;28;20049;-62
2022/01/08 08:53:11;;;;;;;20.83;11.70;;;;;;;;;;5015501;28;20056;-60
2022/01/08 08:55:37;;;;;;;27.15;11.95;;;;;;;;;;5014121;28;20418;-62
2022/01/08 08:58:03;;;;;;;26.35;10.95;;;;;;;;;;5013364;28;20387;-63
2022/01/08 09:00:30;;;;;;;23.13;12.48;;;;;;;;;;5017727;28;20053;-62
2022/01/08 09:02:56;;;;;;;20.25;10.95;;;;;;;;;;5017721;28;20456;-62
2022/01/08 09:05:23;;;;;;;24.92;12.10;;;;;;;;;;5020397;28;20103;-61
2022/01/08 09:07:50;;;;;;;20.75;10.85;;;;;;;;;;5015944;28;20049;-62
2022/01/08 09:10:22;;;;;;;25.77;11.13;;;;;;;;;;5012456;28;20049;-62
2022/01/08 09:12:49;;;;;;;17.50;10.73;;;;;;;;;;5013629;28;20057;-62
2022/01/08 09:15:15;;;;;;;21.70;10.48;;;;;;;;;;5020723;28;20050;-62
2022/01/08 09:17:42;;;;;;;22.40;11.02;;;;;;;;;;5005915;28;20060;-62
2022/01/08 09:20:09;;;;;;;25.80;10.95;;;;;;;;;;5022287;28;20050;-62
2022/01/08 09:22:36;;;;;;;16.95;9.95;;;;;;;;;;5009796;28;20045;-62
2022/01/08 09:25:03;;;;;;;19.50;10.63;;;;;;;;;;5017543;28;20817;-61
2022/01/08 09:27:29;;;;;;;18.60;10.93;;;;;;;;;;5008726;28;20061;-62
2022/01/08 09:29:55;;;;;;;25.70;11.27;;;;;;;;;;5023019;28;20049;-60
2022/01/08 09:32:23;;;;;;;21.67;10.80;;;;;;;;;;5018075;28;20152;-61
2022/01/08 09:34:50;;;;;;;23.17;10.40;;;;;;;;;;5015930;28;20046;-62
2022/01/08 09:37:16;;;;;;;18.83;9.90;;;;;;;;;;5014620;28;20060;-61
2022/01/08 09:39:43;;;;;;;22.58;9.02;;;;;;;;;;5012923;28;20042;-62
2022/01/08 09:42:09;;;;;;;18.65;10.30;;;;;;;;;;5023664;28;20065;-62
2022/01/08 09:44:37;;;;;;;21.83;9.88;;;;;;;;;;5017709;28;20506;-61
2022/01/08 09:47:07;;;;;;;14.60;9.13;;;;;;;;;;5027302;28;20901;-61
2022/01/08 09:49:33;;;;;;;18.70;9.50;;;;;;;;;;5025314;28;20061;-61
2022/01/08 09:52:03;;;;;;;26.00;9.60;;;;;;;;;;5011469;28;20525;-61
2022/01/08 09:54:30;;;;;;;21.98;9.43;;;;;;;;;;5021030;28;20616;-61
2022/01/08 09:56:56;;;;;;;24.67;9.27;;;;;;;;;;5014241;28;20350;-61
2022/01/08 09:59:23;;;;;;;14.48;8.93;;;;;;;;;;5021870;28;20087;-62
2022/01/08 10:01:58;;;;;;;13.63;8.15;;;;;;;;;;5020521;28;20483;-61
2022/01/08 10:04:35;;;;;;;19.58;10.13;;;;;;;;;;5019517;28;20045;-60
2022/01/08 10:07:15;;;;;;;19.75;11.48;;;;;;;;;;5010107;28;20076;-62
2022/01/08 10:09:58;;;;;;;21.75;10.82;;;;;;;;;;5026105;28;20050;-61
2022/01/08 10:12:36;;;;;;;22.27;10.57;;;;;;;;;;5021892;28;20060;-62
2022/01/08 10:17:48;;;;;;;20.00;10.93;;;;;;;;;;5016525;28;20688;-61
2022/01/08 10:20:34;;;;;;;20.08;9.98;;;;;;;;;;5011192;28;20062;-61
2022/01/08 10:23:11;;;;;;;21.05;11.13;;;;;;;;;;5021247;28;20045;-61
2022/01/08 10:25:40;;;;;;;18.40;10.98;;;;;;;;;;5018654;28;20042;-60
2022/01/08 10:28:06;;;;;;;;;;;;;;;;;;5021258;28;20042;-59
2022/01/08 10:30:32;;;;;;;16.92;10.45;;;;;;;;;;5016871;28;20294;-61
2022/01/08 10:33:00;;;;;;;22.65;11.52;;;;;;;;;;5019074;28;20409;-61
2022/01/08 10:35:45;;;;;;;30.33;12.75;;;;;;;;;;5014751;28;20088;-61
2022/01/08 10:38:11;;;;;;;22.42;11.93;;;;;;;;;;5022807;28;20045;-62
2022/01/08 10:40:37;;;;;;;21.52;11.75;;;;;;;;;;5023514;28;20048;-61
2022/01/08 10:43:18;;;;;;;28.42;12.95;;;;;;;;;;5013889;28;20049;-60
2022/01/08 10:45:44;;;;;;;19.10;11.18;;;;;;;;;;5022855;28;20128;-60
2022/01/08 10:48:11;;;;;;;25.08;14.00;;;;;;;;;;5005772;28;20056;-63
2022/01/08 10:50:37;;;;;;;24.67;13.88;;;;;;;;;;5019956;28;20060;-63
2022/01/08 10:53:03;;;;;;;20.33;11.77;;;;;;;;;;5020942;28;20395;-61
2022/01/08 10:55:30;;;;;;;24.70;12.57;;;;;;;;;;5017284;28;20569;-61
2022/01/08 10:57:56;;;;;;;25.45;14.10;;;;;;;;;;5022351;28;20049;-61
2022/01/08 11:00:29;;;;;;;27.08;14.30;;;;;;;;;;5006841;28;20050;-61
2022/01/08 11:02:56;;;;;;;22.48;13.30;;;;;;;;;;5019777;28;20073;-61
2022/01/08 11:05:22;;;;;;;27.27;12.65;;;;;;;;;;5009301;28;20543;-61
2022/01/08 11:07:48;;;;;;;28.77;13.02;;;;;;;;;;5024465;28;20042;-61
2022/01/08 11:10:18;;;;;;;24.58;12.05;;;;;;;;;;5012729;28;20053;-61
2022/01/08 11:12:46;;;;;;;22.23;13.32;;;;;;;;;;5026492;28;20053;-60
2022/01/08 11:17:51;;;;;;;22.85;12.25;;;;;;;;;;5011692;28;20049;-62
2022/01/08 11:20:38;;;;;;;24.27;12.63;;;;;;;;;;5025092;28;20498;-63
2022/01/08 11:23:04;;;;;;;24.95;12.65;;;;;;;;;;5021050;28;20057;-61
2022/01/08 11:25:34;;;;;;;24.67;12.60;;;;;;;;;;5027679;28;20080;-61
2022/01/08 11:28:10;;;;;;;24.40;12.20;;;;;;;;;;4982573;28;20050;-62
2022/01/08 11:30:39;;;;;;;27.23;13.23;;;;;;;;;;5000314;28;20053;-61
2022/01/08 11:33:15;;;;;;;30.15;13.93;;;;;;;;;;5015713;28;20049;-61
2022/01/08 11:35:42;;;;;;;30.88;14.23;;;;;;;;;;5015544;28;20120;-63
2022/01/08 11:38:10;;;;;;;23.23;12.60;;;;;;;;;;5022188;28;20045;-63
2022/01/08 11:40:37;;;;;;;29.02;12.43;;;;;;;;;;5020938;28;20475;-62
2022/01/08 11:43:04;;;;;;;24.88;12.75;;;;;;;;;;5017220;28;20076;-61
2022/01/08 11:45:32;;;;;;;20.13;11.02;;;;;;;;;;5007423;28;20628;-63
2022/01/08 11:48:01;;;;;;;32.07;12.20;;;;;;;;;;5020380;28;20510;-64
2022/01/08 11:50:28;;;;;;;34.10;13.05;;;;;;;;;;5005024;28;20049;-62
2022/01/08 11:53:14;;;;;;;15.65;8.65;;;;;;;;;;5023605;28;20052;-63
2022/01/08 11:55:42;;;;;;;27.27;12.85;;;;;;;;;;5003471;28;20528;-63
2022/01/08 11:58:15;;;;;;;22.95;12.07;;;;;;;;;;5017330;28;20045;-62
2022/01/08 12:01:02;;;;;;;25.08;11.02;;;;;;;;;;5030727;28;20050;-62
2022/01/08 12:03:28;;;;;;;25.17;11.75;;;;;;;;;;5006358;28;20472;-62
2022/01/08 12:05:55;;;;;;;22.85;11.98;;;;;;;;;;5015808;28;20128;-62
2022/01/08 12:08:47;;;;;;;22.75;11.95;;;;;;;;;;5010506;28;20049;-62
2022/01/08 12:11:13;;;;;;;23.25;10.32;;;;;;;;;;5018314;28;20053;-62
2022/01/08 12:13:44;;;;;;;23.00;10.32;;;;;;;;;;5010902;28;20049;-62
2022/01/08 12:16:30;;;;;;;24.67;10.88;;;;;;;;;;5026387;28;20128;-62
2022/01/08 12:18:56;;;;;;;20.10;10.32;;;;;;;;;;5011622;28;20046;-62
2022/01/08 12:21:49;;;;;;;18.92;9.52;;;;;;;;;;5017955;28;20057;-61
2022/01/08 12:24:27;;;;;;;19.50;8.82;;;;;;;;;;5002114;28;20297;-61
2022/01/08 12:26:59;;;;;;;22.52;10.20;;;;;;;;;;5018080;28;20506;-62
2022/01/08 12:29:32;;;;;;;17.48;8.05;;;;;;;;;;5023006;28;20054;-63
2022/01/08 12:32:17;;;;;;;21.77;10.02;;;;;;;;;;5008705;28;20517;-63
2022/01/08 12:34:48;;;;;;;24.50;9.25;;;;;;;;;;5018956;28;20042;-62
2022/01/08 12:37:15;;;;;;;22.52;8.10;;;;;;;;;;5003797;28;20064;-63
2022/01/08 12:39:41;;;;;;;17.02;9.00;;;;;;;;;;5017879;28;20060;-63
2022/01/08 12:42:20;;;;;;;16.95;8.80;;;;;;;;;;5011032;28;20041;-64
2022/01/08 12:44:58;;;;;;;13.65;7.30;;;;;;;;;;5021264;28;20109;-63
2022/01/08 12:47:24;;;;;;;;;;;;;;;;;;5009956;28;20041;-64
2022/01/08 12:50:11;;;;;;;17.25;7.53;;;;;;;;;;5017326;28;20279;-62
2022/01/08 12:52:37;;;;;;;17.75;8.40;;;;;;;;;;5008049;28;20057;-61
2022/01/08 12:55:10;;;;;;;14.05;7.75;;;;;;;;;;5014282;28;20046;-60
2022/01/08 12:57:37;;;;;;;14.77;6.80;;;;;;;;;;5016791;28;20049;-63
2022/01/08 13:00:04;;;;;;;18.02;7.80;;;;;;;;;;5012682;28;20054;-61
2022/01/08 13:02:30;;;;;;;17.75;7.93;;;;;;;;;;5018372;28;20057;-62
2022/01/08 13:04:56;;;;;;;16.60;7.75;;;;;;;;;;5009091;28;20045;-64
2022/01/08 13:07:23;;;;;;;16.10;7.45;;;;;;;;;;5006238;28;20727;-63
2022/01/08 13:09:56;;;;;;;18.02;7.22;;;;;;;;;;5020525;28;20612;-63
2022/01/08 13:12:23;;;;;;;15.80;6.40;;;;;;;;;;5010647;28;20482;-62
2022/01/08 13:14:59;;;;;;;17.42;7.38;;;;;;;;;;5025401;28;20557;-62
2022/01/08 13:17:25;;;;;;;12.95;5.45;;;;;;;;;;5013180;28;20077;-62
2022/01/08 13:20:00;;;;;;;11.98;5.85;;;;;;;;;;5017424;28;20056;-62
2022/01/08 13:22:27;;;;;;;15.77;6.55;;;;;;;;;;5016198;28;20530;-62
2022/01/08 13:24:53;;;;;;;9.98;5.40;;;;;;;;;;5023914;28;20413;-62
2022/01/08 13:27:20;;;;;;;14.30;6.65;;;;;;;;;;5017439;28;20053;-63
2022/01/08 13:29:48;;;;;;;14.13;6.20;;;;;;;;;;5021405;28;20056;-62
2022/01/08 13:32:17;;;;;;;12.63;5.57;;;;;;;;;;5028800;28;20439;-62
2022/01/08 13:34:43;;;;;;;;;;;;;;;;;;5007993;28;20168;-62
2022/01/08 13:37:21;;;;;;;15.02;6.05;;;;;;;;;;5020573;28;19931;-62
2022/01/08 13:39:50;;;;;;;9.93;4.82;;;;;;;;;;5010696;28;20057;-62
2022/01/08 13:42:19;;;;;;;9.43;4.82;;;;;;;;;;5022495;28;20162;-62
2022/01/08 13:44:47;;;;;;;11.80;4.65;;;;;;;;;;5014207;28;20548;-62
2022/01/08 13:47:21;;;;;;;6.55;3.65;;;;;;;;;;5016671;28;20052;-63
2022/01/08 13:49:53;;;;;;;10.30;3.95;;;;;;;;;;5014202;28;20137;-62
2022/01/08 13:52:27;;;;;;;8.95;3.22;;;;;;;;;;5012563;28;20049;-61
2022/01/08 13:55:10;;;;;;;7.45;3.67;;;;;;;;;;5018925;28;20607;-62
2022/01/08 13:57:37;;;;;;;10.80;3.58;;;;;;;;;;5013402;28;20402;-60
2022/01/08 14:00:33;;;;;;;7.10;3.38;;;;;;;;;;5016981;28;20052;-61
2022/01/08 14:02:59;;;;;;;9.02;3.80;;;;;;;;;;4985674;28;20045;-62
2022/01/08 14:05:27;;;;;;;9.55;3.95;;;;;;;;;;5021516;28;20466;-62
2022/01/08 14:08:02;;;;;;;10.18;4.03;;;;;;;;;;5013359;28;20064;-62
2022/01/08 14:10:34;;;;;;;10.95;4.03;;;;;;;;;;5021359;28;20064;-63
2022/01/08 14:13:01;;;;;;;7.97;3.55;;;;;;;;;;5027095;28;20479;-63
2022/01/08 14:15:28;;;;;;;8.68;3.85;;;;;;;;;;5019483;28;20052;-64
2022/01/08 14:17:54;;;;;;;7.38;3.08;;;;;;;;;;5006125;28;20056;-63
2022/01/08 14:20:24;;;;;;;6.47;3.65;;;;;;;;;;5026171;28;20045;-63
2022/01/08 14:22:51;;;;;;;8.18;3.45;;;;;;;;;;5026807;28;20414;-63
2022/01/08 14:25:18;;;;;;;8.85;3.25;;;;;;;;;;5023494;28;20045;-63
2022/01/08 14:27:45;;;;;;;6.05;3.08;;;;;;;;;;5028160;28;20153;-63
2022/01/08 14:30:13;;;;;;;8.55;3.58;;;;;;;;;;5020541;28;20050;-63
2022/01/08 14:32:41;;;;;;;6.32;2.70;;;;;;;;;;5022476;28;20041;-63
2022/01/08 14:35:08;;;;;;;5.30;2.60;;;;;;;;;;5027871;28;20072;-63
2022/01/08 14:37:37;;;;;;;8.40;2.85;;;;;;;;;;5027696;28;20549;-63
2022/01/08 14:40:17;;;;;;;7.07;2.60;;;;;;;;;;5029343;28;20064;-63
2022/01/08 14:42:44;;;;;;;7.10;1.90;;;;;;;;;;5019278;28;20061;-64
2022/01/08 14:45:16;;;;;;;5.13;2.05;;;;;;;;;;5026841;28;20054;-63
2022/01/08 14:47:43;;;;;;;8.70;2.10;;;;;;;;;;5017554;28;20079;-63
2022/01/08 14:50:09;;;;;;;3.58;1.80;;;;;;;;;;5027605;28;20050;-63
2022/01/08 14:52:38;;;;;;;3.97;2.45;;;;;;;;;;5025247;28;20056;-63
2022/01/08 14:55:05;;;;;;;5.53;2.08;;;;;;;;;;5017189;28;20053;-63
2022/01/08 14:57:31;;;;;;;5.47;2.50;;;;;;;;;;5023715;28;20056;-64
2022/01/08 15:00:01;;;;;;;6.15;2.08;;;;;;;;;;5015774;28;20057;-63